Charlottesville Albemarle Airport Charlottesville US
ICAO: KCHO
IATA: CHO
Category: Medium
Scheduled Services: Yes

Elevation: 639 ft
TransAlt. 18000 ft.

Airport Communications:
POTOMAC APP/DEP:132.85
ASOS:118.425
ATIS:118.425
CTAF:124.5
GND:121.9
LEESBURG RDO:122.2
TWR:124.5
UNICOM:122.95

KCHO Zoom In..

If you have problems with the map follow the link
https://www.worldairports.se/pages/airport.php?
ICAO=KCHO

Runways:

(A) RW 03 length 6801 ft width 150 ft
ILS 111.70 / hdg 30

(B) RW 21 length 6801 ft width 150 ft
---- / hdg 210

Location; KCHO
Day. 16 / Time. 03.05 Zulu
* Altimeter: 29.75
* Temperature: 04° c. 39.2°f.
* Wind from: 000° Speed 00 kn.
Dewpoint: 02° c.
Visibility: 2 m.
Clouds: Overcast 300 ft.
Conditions: Light Rain.Conditions: Mist.

KCHO 160305Z 00000KT 2 1/2SM -RA BR OVC003 04/02 A2975 RMK AO2 P0001 T00390022


Wind - Calm.

 
 
jpsmedia.com for Web Design worldairports.se 2018   terms of use